sensor_id;sensor_type;location;lat;lon;timestamp;P1;durP1;ratioP1;P2;durP2;ratioP2
20118;SDS011;10220;42.716;23.306;2023-05-16T00:00:04;14.48;;;7.05;;
20118;SDS011;10220;42.716;23.306;2023-05-16T00:02:33;10.38;;;6.95;;
20118;SDS011;10220;42.716;23.306;2023-05-16T00:05:00;11.10;;;6.90;;
20118;SDS011;10220;42.716;23.306;2023-05-16T00:07:25;11.32;;;6.57;;
20118;SDS011;10220;42.716;23.306;2023-05-16T00:09:54;9.80;;;7.30;;
20118;SDS011;10220;42.716;23.306;2023-05-16T00:12:19;12.20;;;8.00;;
20118;SDS011;10220;42.716;23.306;2023-05-16T00:14:46;9.38;;;6.18;;
20118;SDS011;10220;42.716;23.306;2023-05-16T00:17:12;13.18;;;7.63;;
20118;SDS011;10220;42.716;23.306;2023-05-16T00:19:38;9.90;;;7.00;;
20118;SDS011;10220;42.716;23.306;2023-05-16T00:22:06;14.07;;;8.25;;
20118;SDS011;10220;42.716;23.306;2023-05-16T00:24:32;9.88;;;6.88;;
20118;SDS011;10220;42.716;23.306;2023-05-16T00:26:58;10.60;;;7.45;;
20118;SDS011;10220;42.716;23.306;2023-05-16T00:29:23;15.23;;;8.68;;
20118;SDS011;10220;42.716;23.306;2023-05-16T00:31:49;11.27;;;7.25;;
20118;SDS011;10220;42.716;23.306;2023-05-16T00:34:14;10.82;;;7.40;;
20118;SDS011;10220;42.716;23.306;2023-05-16T00:36:40;12.27;;;7.45;;
20118;SDS011;10220;42.716;23.306;2023-05-16T00:39:05;10.65;;;7.55;;
20118;SDS011;10220;42.716;23.306;2023-05-16T00:41:32;11.38;;;7.68;;
20118;SDS011;10220;42.716;23.306;2023-05-16T00:43:58;12.18;;;7.55;;
20118;SDS011;10220;42.716;23.306;2023-05-16T00:46:23;13.52;;;7.50;;
20118;SDS011;10220;42.716;23.306;2023-05-16T00:48:49;10.90;;;7.38;;
20118;SDS011;10220;42.716;23.306;2023-05-16T00:51:15;12.05;;;8.00;;
20118;SDS011;10220;42.716;23.306;2023-05-16T00:53:41;11.65;;;7.88;;
20118;SDS011;10220;42.716;23.306;2023-05-16T00:56:07;11.70;;;7.72;;
20118;SDS011;10220;42.716;23.306;2023-05-16T00:58:36;11.50;;;7.78;;
20118;SDS011;10220;42.716;23.306;2023-05-16T01:01:04;12.75;;;8.00;;
20118;SDS011;10220;42.716;23.306;2023-05-16T01:03:32;12.10;;;9.00;;
20118;SDS011;10220;42.716;23.306;2023-05-16T01:05:58;12.63;;;7.18;;
20118;SDS011;10220;42.716;23.306;2023-05-16T01:08:23;11.70;;;7.65;;
20118;SDS011;10220;42.716;23.306;2023-05-16T01:10:57;10.30;;;7.13;;
20118;SDS011;10220;42.716;23.306;2023-05-16T01:13:30;14.18;;;7.68;;
20118;SDS011;10220;42.716;23.306;2023-05-16T01:21:18;10.88;;;7.07;;
20118;SDS011;10220;42.716;23.306;2023-05-16T01:24:03;11.30;;;7.13;;
20118;SDS011;10220;42.716;23.306;2023-05-16T01:26:52;8.55;;;7.20;;
20118;SDS011;10220;42.716;23.306;2023-05-16T01:29:20;10.75;;;6.70;;
20118;SDS011;10220;42.716;23.306;2023-05-16T01:31:45;8.32;;;6.85;;
20118;SDS011;10220;42.716;23.306;2023-05-16T01:34:11;11.32;;;6.95;;
20118;SDS011;10220;42.716;23.306;2023-05-16T01:36:43;13.20;;;7.78;;
20118;SDS011;10220;42.716;23.306;2023-05-16T01:41:52;9.73;;;6.45;;
20118;SDS011;10220;42.716;23.306;2023-05-16T01:44:30;11.85;;;7.10;;
20118;SDS011;10220;42.716;23.306;2023-05-16T01:47:00;10.55;;;7.10;;
20118;SDS011;10220;42.716;23.306;2023-05-16T01:49:34;10.07;;;7.10;;
20118;SDS011;10220;42.716;23.306;2023-05-16T01:52:48;13.63;;;7.28;;
20118;SDS011;10220;42.716;23.306;2023-05-16T01:54:56;11.30;;;7.15;;
20118;SDS011;10220;42.716;23.306;2023-05-16T01:57:25;12.15;;;7.35;;
20118;SDS011;10220;42.716;23.306;2023-05-16T01:59:52;10.05;;;6.68;;
20118;SDS011;10220;42.716;23.306;2023-05-16T02:02:18;10.02;;;6.15;;
20118;SDS011;10220;42.716;23.306;2023-05-16T02:04:44;10.15;;;6.75;;
20118;SDS011;10220;42.716;23.306;2023-05-16T02:07:10;11.40;;;6.90;;
20118;SDS011;10220;42.716;23.306;2023-05-16T02:09:38;12.55;;;7.55;;
20118;SDS011;10220;42.716;23.306;2023-05-16T02:12:04;10.32;;;6.72;;
20118;SDS011;10220;42.716;23.306;2023-05-16T02:14:32;9.65;;;6.75;;
20118;SDS011;10220;42.716;23.306;2023-05-16T02:16:57;8.75;;;6.18;;
20118;SDS011;10220;42.716;23.306;2023-05-16T02:19:23;8.13;;;6.43;;
20118;SDS011;10220;42.716;23.306;2023-05-16T02:21:51;15.65;;;7.40;;
20118;SDS011;10220;42.716;23.306;2023-05-16T02:24:18;10.00;;;6.82;;
20118;SDS011;10220;42.716;23.306;2023-05-16T02:26:44;11.48;;;7.13;;
20118;SDS011;10220;42.716;23.306;2023-05-16T02:29:11;9.93;;;7.20;;
20118;SDS011;10220;42.716;23.306;2023-05-16T02:31:37;17.38;;;8.10;;
20118;SDS011;10220;42.716;23.306;2023-05-16T02:34:02;10.35;;;6.82;;
20118;SDS011;10220;42.716;23.306;2023-05-16T02:36:28;10.98;;;7.00;;
20118;SDS011;10220;42.716;23.306;2023-05-16T02:38:53;11.77;;;7.03;;
20118;SDS011;10220;42.716;23.306;2023-05-16T02:41:19;10.93;;;6.65;;
20118;SDS011;10220;42.716;23.306;2023-05-16T02:43:46;15.85;;;7.65;;
20118;SDS011;10220;42.716;23.306;2023-05-16T02:49:07;12.32;;;7.25;;
20118;SDS011;10220;42.716;23.306;2023-05-16T02:51:32;8.85;;;6.25;;
20118;SDS011;10220;42.716;23.306;2023-05-16T02:54:00;10.23;;;7.05;;
20118;SDS011;10220;42.716;23.306;2023-05-16T02:56:25;12.52;;;7.25;;
20118;SDS011;10220;42.716;23.306;2023-05-16T02:58:54;11.65;;;7.90;;
20118;SDS011;10220;42.716;23.306;2023-05-16T03:01:20;10.65;;;7.30;;
20118;SDS011;10220;42.716;23.306;2023-05-16T03:03:48;8.77;;;6.75;;
20118;SDS011;10220;42.716;23.306;2023-05-16T03:06:13;11.50;;;7.22;;
20118;SDS011;10220;42.716;23.306;2023-05-16T03:08:39;8.43;;;6.32;;
20118;SDS011;10220;42.716;23.306;2023-05-16T03:11:04;13.85;;;6.55;;
20118;SDS011;10220;42.716;23.306;2023-05-16T03:13:30;11.68;;;7.20;;
20118;SDS011;10220;42.716;23.306;2023-05-16T03:15:55;12.15;;;6.30;;
20118;SDS011;10220;42.716;23.306;2023-05-16T03:18:21;8.35;;;6.40;;
20118;SDS011;10220;42.716;23.306;2023-05-16T03:20:46;13.52;;;6.60;;
20118;SDS011;10220;42.716;23.306;2023-05-16T03:23:12;10.77;;;5.70;;
20118;SDS011;10220;42.716;23.306;2023-05-16T03:25:38;12.13;;;7.03;;
20118;SDS011;10220;42.716;23.306;2023-05-16T03:28:07;13.32;;;5.97;;
20118;SDS011;10220;42.716;23.306;2023-05-16T03:30:33;10.57;;;6.38;;
20118;SDS011;10220;42.716;23.306;2023-05-16T03:33:01;11.95;;;6.65;;
20118;SDS011;10220;42.716;23.306;2023-05-16T03:35:28;6.82;;;5.72;;
20118;SDS011;10220;42.716;23.306;2023-05-16T03:37:57;10.95;;;5.72;;
20118;SDS011;10220;42.716;23.306;2023-05-16T03:40:22;11.20;;;6.53;;
20118;SDS011;10220;42.716;23.306;2023-05-16T03:42:48;11.00;;;7.10;;
20118;SDS011;10220;42.716;23.306;2023-05-16T03:45:14;10.25;;;6.10;;
20118;SDS011;10220;42.716;23.306;2023-05-16T03:47:39;12.77;;;6.68;;
20118;SDS011;10220;42.716;23.306;2023-05-16T03:50:05;12.95;;;6.35;;
20118;SDS011;10220;42.716;23.306;2023-05-16T03:52:31;10.10;;;6.68;;
20118;SDS011;10220;42.716;23.306;2023-05-16T03:54:59;9.98;;;6.93;;
20118;SDS011;10220;42.716;23.306;2023-05-16T03:57:26;7.35;;;6.50;;
20118;SDS011;10220;42.716;23.306;2023-05-16T03:59:51;11.05;;;6.15;;
20118;SDS011;10220;42.716;23.306;2023-05-16T04:02:17;8.05;;;6.13;;
20118;SDS011;10220;42.716;23.306;2023-05-16T04:04:42;8.77;;;5.63;;
20118;SDS011;10220;42.716;23.306;2023-05-16T04:07:08;10.32;;;6.57;;
20118;SDS011;10220;42.716;23.306;2023-05-16T04:09:39;11.20;;;5.80;;
20118;SDS011;10220;42.716;23.306;2023-05-16T04:12:05;11.30;;;6.60;;
20118;SDS011;10220;42.716;23.306;2023-05-16T04:14:30;11.60;;;6.22;;
20118;SDS011;10220;42.716;23.306;2023-05-16T04:16:59;8.57;;;6.00;;
20118;SDS011;10220;42.716;23.306;2023-05-16T04:19:25;10.23;;;6.28;;
20118;SDS011;10220;42.716;23.306;2023-05-16T04:21:50;11.48;;;6.03;;
20118;SDS011;10220;42.716;23.306;2023-05-16T04:24:16;14.30;;;7.10;;
20118;SDS011;10220;42.716;23.306;2023-05-16T04:26:43;9.73;;;6.53;;
20118;SDS011;10220;42.716;23.306;2023-05-16T04:29:09;10.13;;;6.45;;
20118;SDS011;10220;42.716;23.306;2023-05-16T04:31:34;10.15;;;7.05;;
20118;SDS011;10220;42.716;23.306;2023-05-16T04:34:03;10.75;;;7.05;;
20118;SDS011;10220;42.716;23.306;2023-05-16T04:36:29;9.98;;;7.28;;
20118;SDS011;10220;42.716;23.306;2023-05-16T04:38:55;8.48;;;6.07;;
20118;SDS011;10220;42.716;23.306;2023-05-16T04:41:21;9.07;;;6.93;;
20118;SDS011;10220;42.716;23.306;2023-05-16T04:43:48;9.15;;;7.57;;
20118;SDS011;10220;42.716;23.306;2023-05-16T04:46:13;11.82;;;6.68;;
20118;SDS011;10220;42.716;23.306;2023-05-16T04:48:42;9.30;;;6.85;;
20118;SDS011;10220;42.716;23.306;2023-05-16T04:51:08;13.57;;;7.88;;
20118;SDS011;10220;42.716;23.306;2023-05-16T04:53:33;13.32;;;6.47;;
20118;SDS011;10220;42.716;23.306;2023-05-16T04:55:59;10.00;;;6.32;;
20118;SDS011;10220;42.716;23.306;2023-05-16T04:58:25;10.85;;;7.10;;
20118;SDS011;10220;42.716;23.306;2023-05-16T05:00:50;13.13;;;7.15;;
20118;SDS011;10220;42.716;23.306;2023-05-16T05:03:16;13.93;;;8.20;;
20118;SDS011;10220;42.716;23.306;2023-05-16T05:05:42;11.70;;;6.88;;
20118;SDS011;10220;42.716;23.306;2023-05-16T05:08:07;10.73;;;8.13;;
20118;SDS011;10220;42.716;23.306;2023-05-16T05:10:35;16.42;;;7.45;;
20118;SDS011;10220;42.716;23.306;2023-05-16T05:13:01;10.30;;;6.95;;
20118;SDS011;10220;42.716;23.306;2023-05-16T05:15:26;11.23;;;7.35;;
20118;SDS011;10220;42.716;23.306;2023-05-16T05:17:52;15.32;;;8.60;;
20118;SDS011;10220;42.716;23.306;2023-05-16T05:20:20;17.17;;;8.02;;
20118;SDS011;10220;42.716;23.306;2023-05-16T05:22:48;11.80;;;7.85;;
20118;SDS011;10220;42.716;23.306;2023-05-16T05:25:13;11.75;;;7.03;;
20118;SDS011;10220;42.716;23.306;2023-05-16T05:27:39;11.35;;;7.47;;
20118;SDS011;10220;42.716;23.306;2023-05-16T05:30:04;15.38;;;7.63;;
20118;SDS011;10220;42.716;23.306;2023-05-16T05:32:30;14.77;;;7.80;;
20118;SDS011;10220;42.716;23.306;2023-05-16T05:34:56;13.70;;;8.18;;
20118;SDS011;10220;42.716;23.306;2023-05-16T05:37:22;13.50;;;7.40;;
20118;SDS011;10220;42.716;23.306;2023-05-16T05:39:47;15.55;;;9.05;;
20118;SDS011;10220;42.716;23.306;2023-05-16T05:42:13;13.15;;;7.18;;
20118;SDS011;10220;42.716;23.306;2023-05-16T05:44:38;10.07;;;7.25;;
20118;SDS011;10220;42.716;23.306;2023-05-16T05:47:04;11.90;;;7.13;;
20118;SDS011;10220;42.716;23.306;2023-05-16T05:49:30;16.52;;;9.10;;
20118;SDS011;10220;42.716;23.306;2023-05-16T05:51:56;21.48;;;8.50;;
20118;SDS011;10220;42.716;23.306;2023-05-16T05:54:23;13.35;;;7.03;;
20118;SDS011;10220;42.716;23.306;2023-05-16T05:56:49;13.05;;;8.38;;
20118;SDS011;10220;42.716;23.306;2023-05-16T05:59:15;14.18;;;8.25;;
20118;SDS011;10220;42.716;23.306;2023-05-16T06:01:40;16.23;;;7.95;;
20118;SDS011;10220;42.716;23.306;2023-05-16T06:04:06;13.05;;;7.45;;
20118;SDS011;10220;42.716;23.306;2023-05-16T06:06:32;12.75;;;7.30;;
20118;SDS011;10220;42.716;23.306;2023-05-16T06:09:00;14.50;;;7.45;;
20118;SDS011;10220;42.716;23.306;2023-05-16T06:11:28;11.70;;;6.40;;
20118;SDS011;10220;42.716;23.306;2023-05-16T06:13:53;12.55;;;6.40;;
20118;SDS011;10220;42.716;23.306;2023-05-16T06:16:25;10.38;;;5.85;;
20118;SDS011;10220;42.716;23.306;2023-05-16T06:19:00;9.10;;;6.45;;
20118;SDS011;10220;42.716;23.306;2023-05-16T06:21:36;11.77;;;6.35;;
20118;SDS011;10220;42.716;23.306;2023-05-16T06:24:01;13.40;;;6.15;;
20118;SDS011;10220;42.716;23.306;2023-05-16T06:26:30;10.80;;;6.68;;
20118;SDS011;10220;42.716;23.306;2023-05-16T06:28:56;13.68;;;6.65;;
20118;SDS011;10220;42.716;23.306;2023-05-16T06:31:22;12.88;;;6.72;;
20118;SDS011;10220;42.716;23.306;2023-05-16T06:33:52;9.07;;;7.43;;
20118;SDS011;10220;42.716;23.306;2023-05-16T06:36:18;10.98;;;5.78;;
20118;SDS011;10220;42.716;23.306;2023-05-16T06:38:43;12.05;;;6.57;;
20118;SDS011;10220;42.716;23.306;2023-05-16T06:41:09;13.02;;;5.65;;
20118;SDS011;10220;42.716;23.306;2023-05-16T06:43:37;12.50;;;6.65;;
20118;SDS011;10220;42.716;23.306;2023-05-16T06:46:02;7.53;;;5.50;;
20118;SDS011;10220;42.716;23.306;2023-05-16T06:48:28;10.73;;;5.22;;
20118;SDS011;10220;42.716;23.306;2023-05-16T06:50:53;16.05;;;5.13;;
20118;SDS011;10220;42.716;23.306;2023-05-16T06:53:19;11.85;;;6.28;;
20118;SDS011;10220;42.716;23.306;2023-05-16T06:55:45;12.90;;;5.45;;
20118;SDS011;10220;42.716;23.306;2023-05-16T06:58:13;9.07;;;5.97;;
20118;SDS011;10220;42.716;23.306;2023-05-16T07:00:39;8.80;;;6.30;;
20118;SDS011;10220;42.716;23.306;2023-05-16T07:03:05;7.72;;;5.97;;
20118;SDS011;10220;42.716;23.306;2023-05-16T07:05:31;8.63;;;5.60;;
20118;SDS011;10220;42.716;23.306;2023-05-16T07:07:56;9.73;;;6.55;;
20118;SDS011;10220;42.716;23.306;2023-05-16T07:10:22;6.32;;;5.22;;
20118;SDS011;10220;42.716;23.306;2023-05-16T07:12:47;8.82;;;5.63;;
20118;SDS011;10220;42.716;23.306;2023-05-16T07:15:13;9.02;;;5.70;;
20118;SDS011;10220;42.716;23.306;2023-05-16T07:17:38;10.15;;;6.05;;
20118;SDS011;10220;42.716;23.306;2023-05-16T07:20:05;9.65;;;6.50;;
20118;SDS011;10220;42.716;23.306;2023-05-16T07:22:32;12.20;;;5.32;;
20118;SDS011;10220;42.716;23.306;2023-05-16T07:24:57;10.63;;;6.55;;
20118;SDS011;10220;42.716;23.306;2023-05-16T07:27:25;8.95;;;5.80;;
20118;SDS011;10220;42.716;23.306;2023-05-16T07:29:51;11.52;;;5.93;;
20118;SDS011;10220;42.716;23.306;2023-05-16T07:32:16;8.70;;;5.50;;
20118;SDS011;10220;42.716;23.306;2023-05-16T07:34:42;15.10;;;6.20;;
20118;SDS011;10220;42.716;23.306;2023-05-16T07:37:07;8.82;;;4.82;;
20118;SDS011;10220;42.716;23.306;2023-05-16T07:39:37;12.48;;;6.22;;
20118;SDS011;10220;42.716;23.306;2023-05-16T07:42:05;10.50;;;5.75;;
20118;SDS011;10220;42.716;23.306;2023-05-16T07:44:31;6.43;;;4.70;;
20118;SDS011;10220;42.716;23.306;2023-05-16T07:46:57;6.65;;;4.75;;
20118;SDS011;10220;42.716;23.306;2023-05-16T07:49:22;9.38;;;4.47;;
20118;SDS011;10220;42.716;23.306;2023-05-16T07:51:48;8.82;;;4.70;;
20118;SDS011;10220;42.716;23.306;2023-05-16T07:54:13;6.22;;;5.15;;
20118;SDS011;10220;42.716;23.306;2023-05-16T07:56:38;7.60;;;5.43;;
20118;SDS011;10220;42.716;23.306;2023-05-16T07:59:07;6.18;;;3.75;;
20118;SDS011;10220;42.716;23.306;2023-05-16T08:01:33;11.48;;;5.18;;
20118;SDS011;10220;42.716;23.306;2023-05-16T08:03:58;8.82;;;5.22;;
20118;SDS011;10220;42.716;23.306;2023-05-16T08:06:23;6.93;;;3.80;;
20118;SDS011;10220;42.716;23.306;2023-05-16T08:08:49;5.28;;;3.97;;
20118;SDS011;10220;42.716;23.306;2023-05-16T08:11:14;7.60;;;4.85;;
20118;SDS011;10220;42.716;23.306;2023-05-16T08:13:40;11.45;;;5.05;;
20118;SDS011;10220;42.716;23.306;2023-05-16T08:16:05;7.68;;;4.82;;
20118;SDS011;10220;42.716;23.306;2023-05-16T08:18:31;5.80;;;4.78;;
20118;SDS011;10220;42.716;23.306;2023-05-16T08:20:56;10.23;;;5.28;;
20118;SDS011;10220;42.716;23.306;2023-05-16T08:23:22;7.05;;;4.25;;
20118;SDS011;10220;42.716;23.306;2023-05-16T08:25:48;12.20;;;5.05;;
20118;SDS011;10220;42.716;23.306;2023-05-16T08:28:14;9.15;;;5.07;;
20118;SDS011;10220;42.716;23.306;2023-05-16T08:30:39;8.32;;;4.38;;
20118;SDS011;10220;42.716;23.306;2023-05-16T08:33:05;10.90;;;4.55;;
20118;SDS011;10220;42.716;23.306;2023-05-16T08:35:30;8.50;;;4.88;;
20118;SDS011;10220;42.716;23.306;2023-05-16T08:37:56;9.82;;;4.97;;
20118;SDS011;10220;42.716;23.306;2023-05-16T08:40:24;12.68;;;5.13;;
20118;SDS011;10220;42.716;23.306;2023-05-16T08:42:50;11.52;;;4.82;;
20118;SDS011;10220;42.716;23.306;2023-05-16T08:45:15;8.93;;;5.35;;
20118;SDS011;10220;42.716;23.306;2023-05-16T08:47:41;14.00;;;4.97;;
20118;SDS011;10220;42.716;23.306;2023-05-16T08:50:09;10.20;;;6.15;;
20118;SDS011;10220;42.716;23.306;2023-05-16T08:52:36;8.00;;;5.03;;
20118;SDS011;10220;42.716;23.306;2023-05-16T08:55:02;6.93;;;5.30;;
20118;SDS011;10220;42.716;23.306;2023-05-16T08:57:35;9.23;;;5.65;;
20118;SDS011;10220;42.716;23.306;2023-05-16T09:00:01;7.90;;;4.75;;
20118;SDS011;10220;42.716;23.306;2023-05-16T09:02:31;10.18;;;4.88;;
20118;SDS011;10220;42.716;23.306;2023-05-16T09:04:57;10.75;;;5.65;;
20118;SDS011;10220;42.716;23.306;2023-05-16T09:07:23;7.43;;;5.40;;
20118;SDS011;10220;42.716;23.306;2023-05-16T09:09:49;8.45;;;4.50;;
20118;SDS011;10220;42.716;23.306;2023-05-16T09:12:14;11.65;;;4.70;;
20118;SDS011;10220;42.716;23.306;2023-05-16T09:14:40;7.60;;;5.00;;
20118;SDS011;10220;42.716;23.306;2023-05-16T09:17:07;7.45;;;4.30;;
20118;SDS011;10220;42.716;23.306;2023-05-16T09:19:39;9.73;;;4.55;;
20118;SDS011;10220;42.716;23.306;2023-05-16T09:22:09;9.68;;;4.93;;
20118;SDS011;10220;42.716;23.306;2023-05-16T09:24:39;9.02;;;4.82;;
20118;SDS011;10220;42.716;23.306;2023-05-16T09:27:09;8.00;;;5.20;;
20118;SDS011;10220;42.716;23.306;2023-05-16T09:29:38;7.20;;;5.22;;
20118;SDS011;10220;42.716;23.306;2023-05-16T09:32:09;9.27;;;4.63;;
20118;SDS011;10220;42.716;23.306;2023-05-16T09:34:45;7.50;;;4.97;;
20118;SDS011;10220;42.716;23.306;2023-05-16T09:37:13;9.63;;;5.13;;
20118;SDS011;10220;42.716;23.306;2023-05-16T09:39:44;7.55;;;4.65;;
20118;SDS011;10220;42.716;23.306;2023-05-16T09:42:14;7.68;;;5.07;;
20118;SDS011;10220;42.716;23.306;2023-05-16T09:44:40;9.38;;;4.63;;
20118;SDS011;10220;42.716;23.306;2023-05-16T09:47:12;9.68;;;4.68;;
20118;SDS011;10220;42.716;23.306;2023-05-16T09:49:40;7.93;;;4.68;;
20118;SDS011;10220;42.716;23.306;2023-05-16T09:52:05;6.07;;;4.40;;
20118;SDS011;10220;42.716;23.306;2023-05-16T09:54:31;7.95;;;5.07;;
20118;SDS011;10220;42.716;23.306;2023-05-16T09:56:58;10.35;;;4.20;;
20118;SDS011;10220;42.716;23.306;2023-05-16T09:59:24;10.82;;;4.50;;
20118;SDS011;10220;42.716;23.306;2023-05-16T10:01:50;9.27;;;4.57;;
20118;SDS011;10220;42.716;23.306;2023-05-16T10:04:17;5.30;;;3.92;;
20118;SDS011;10220;42.716;23.306;2023-05-16T10:06:43;8.60;;;4.50;;
20118;SDS011;10220;42.716;23.306;2023-05-16T10:09:10;6.55;;;5.00;;
20118;SDS011;10220;42.716;23.306;2023-05-16T10:11:40;7.18;;;4.15;;
20118;SDS011;10220;42.716;23.306;2023-05-16T10:14:08;11.00;;;4.43;;
20118;SDS011;10220;42.716;23.306;2023-05-16T10:16:35;5.03;;;4.00;;
20118;SDS011;10220;42.716;23.306;2023-05-16T10:19:02;7.75;;;4.95;;
20118;SDS011;10220;42.716;23.306;2023-05-16T10:21:29;5.15;;;4.22;;
20118;SDS011;10220;42.716;23.306;2023-05-16T10:23:57;10.00;;;4.00;;
20118;SDS011;10220;42.716;23.306;2023-05-16T10:26:27;8.23;;;4.68;;
20118;SDS011;10220;42.716;23.306;2023-05-16T10:28:53;5.10;;;3.72;;
20118;SDS011;10220;42.716;23.306;2023-05-16T10:31:20;5.68;;;4.15;;
20118;SDS011;10220;42.716;23.306;2023-05-16T10:33:46;6.47;;;4.30;;
20118;SDS011;10220;42.716;23.306;2023-05-16T10:36:11;6.15;;;4.35;;
20118;SDS011;10220;42.716;23.306;2023-05-16T10:38:38;4.72;;;4.25;;
20118;SDS011;10220;42.716;23.306;2023-05-16T10:41:05;10.73;;;4.75;;
20118;SDS011;10220;42.716;23.306;2023-05-16T10:43:31;8.23;;;4.70;;
20118;SDS011;10220;42.716;23.306;2023-05-16T10:46:07;10.77;;;4.93;;
20118;SDS011;10220;42.716;23.306;2023-05-16T10:48:36;6.57;;;4.20;;
20118;SDS011;10220;42.716;23.306;2023-05-16T10:53:51;6.78;;;3.50;;
20118;SDS011;10220;42.716;23.306;2023-05-16T10:56:24;5.00;;;4.30;;
20118;SDS011;10220;42.716;23.306;2023-05-16T10:58:52;6.22;;;3.80;;
20118;SDS011;10220;42.716;23.306;2023-05-16T11:01:34;5.57;;;3.97;;
20118;SDS011;10220;42.716;23.306;2023-05-16T11:14:22;4.88;;;4.30;;
20118;SDS011;10220;42.716;23.306;2023-05-16T11:16:50;7.97;;;4.30;;
20118;SDS011;10220;42.716;23.306;2023-05-16T11:19:30;5.97;;;4.55;;
20118;SDS011;10220;42.716;23.306;2023-05-16T11:22:03;5.88;;;4.55;;
20118;SDS011;10220;42.716;23.306;2023-05-16T11:24:32;10.13;;;4.63;;
20118;SDS011;10220;42.716;23.306;2023-05-16T11:26:59;6.30;;;4.82;;
20118;SDS011;10220;42.716;23.306;2023-05-16T11:29:27;5.93;;;4.22;;
20118;SDS011;10220;42.716;23.306;2023-05-16T11:31:52;7.00;;;4.40;;
20118;SDS011;10220;42.716;23.306;2023-05-16T11:34:18;7.10;;;4.93;;
20118;SDS011;10220;42.716;23.306;2023-05-16T11:36:43;8.25;;;3.92;;
20118;SDS011;10220;42.716;23.306;2023-05-16T11:39:09;7.82;;;4.97;;
20118;SDS011;10220;42.716;23.306;2023-05-16T11:41:36;11.82;;;5.03;;
20118;SDS011;10220;42.716;23.306;2023-05-16T11:44:02;6.47;;;4.45;;
20118;SDS011;10220;42.716;23.306;2023-05-16T11:46:29;6.05;;;4.40;;
20118;SDS011;10220;42.716;23.306;2023-05-16T11:48:55;8.32;;;4.25;;
20118;SDS011;10220;42.716;23.306;2023-05-16T11:51:21;6.95;;;4.63;;
20118;SDS011;10220;42.716;23.306;2023-05-16T11:53:47;11.63;;;4.90;;
20118;SDS011;10220;42.716;23.306;2023-05-16T11:56:16;9.55;;;3.95;;
20118;SDS011;10220;42.716;23.306;2023-05-16T11:58:45;10.98;;;5.15;;
20118;SDS011;10220;42.716;23.306;2023-05-16T12:01:11;6.63;;;4.75;;
20118;SDS011;10220;42.716;23.306;2023-05-16T12:03:37;4.97;;;4.10;;
20118;SDS011;10220;42.716;23.306;2023-05-16T12:06:11;5.30;;;4.15;;
20118;SDS011;10220;42.716;23.306;2023-05-16T12:08:36;6.47;;;4.43;;
20118;SDS011;10220;42.716;23.306;2023-05-16T12:11:11;11.80;;;4.85;;
20118;SDS011;10220;42.716;23.306;2023-05-16T12:13:36;11.15;;;4.22;;
20118;SDS011;10220;42.716;23.306;2023-05-16T12:19:13;6.38;;;4.10;;
20118;SDS011;10220;42.716;23.306;2023-05-16T12:25:32;4.65;;;3.83;;
20118;SDS011;10220;42.716;23.306;2023-05-16T12:28:08;7.75;;;3.88;;
20118;SDS011;10220;42.716;23.306;2023-05-16T12:30:40;8.20;;;4.57;;
20118;SDS011;10220;42.716;23.306;2023-05-16T12:33:12;9.52;;;4.45;;
20118;SDS011;10220;42.716;23.306;2023-05-16T12:35:40;11.63;;;4.20;;
20118;SDS011;10220;42.716;23.306;2023-05-16T12:38:07;5.00;;;3.25;;
20118;SDS011;10220;42.716;23.306;2023-05-16T12:40:38;7.55;;;3.75;;
20118;SDS011;10220;42.716;23.306;2023-05-16T12:45:56;5.53;;;3.45;;
20118;SDS011;10220;42.716;23.306;2023-05-16T12:51:40;6.32;;;3.67;;
20118;SDS011;10220;42.716;23.306;2023-05-16T12:54:12;4.57;;;4.00;;
20118;SDS011;10220;42.716;23.306;2023-05-16T12:57:03;4.57;;;3.90;;
20118;SDS011;10220;42.716;23.306;2023-05-16T12:59:31;7.25;;;4.32;;
20118;SDS011;10220;42.716;23.306;2023-05-16T13:05:25;6.60;;;4.55;;
20118;SDS011;10220;42.716;23.306;2023-05-16T13:07:57;7.68;;;4.50;;
20118;SDS011;10220;42.716;23.306;2023-05-16T13:10:55;9.88;;;5.03;;
20118;SDS011;10220;42.716;23.306;2023-05-16T13:14:04;9.70;;;4.88;;
20118;SDS011;10220;42.716;23.306;2023-05-16T13:34:50;8.15;;;3.72;;
20118;SDS011;10220;42.716;23.306;2023-05-16T13:37:19;9.35;;;4.82;;
20118;SDS011;10220;42.716;23.306;2023-05-16T13:39:58;7.00;;;4.35;;
20118;SDS011;10220;42.716;23.306;2023-05-16T13:42:24;9.65;;;5.03;;
20118;SDS011;10220;42.716;23.306;2023-05-16T13:44:50;5.03;;;3.95;;
20118;SDS011;10220;42.716;23.306;2023-05-16T13:47:16;4.72;;;3.40;;
20118;SDS011;10220;42.716;23.306;2023-05-16T13:49:44;12.13;;;6.50;;
20118;SDS011;10220;42.716;23.306;2023-05-16T13:52:12;11.23;;;4.63;;
20118;SDS011;10220;42.716;23.306;2023-05-16T13:54:37;8.50;;;4.40;;
20118;SDS011;10220;42.716;23.306;2023-05-16T13:57:05;12.10;;;4.90;;
20118;SDS011;10220;42.716;23.306;2023-05-16T13:59:31;9.82;;;4.47;;
20118;SDS011;10220;42.716;23.306;2023-05-16T14:01:56;5.45;;;4.25;;
20118;SDS011;10220;42.716;23.306;2023-05-16T14:04:22;10.82;;;6.70;;
20118;SDS011;10220;42.716;23.306;2023-05-16T14:06:47;17.58;;;6.72;;
20118;SDS011;10220;42.716;23.306;2023-05-16T14:09:13;6.25;;;3.90;;
20118;SDS011;10220;42.716;23.306;2023-05-16T14:11:39;9.65;;;5.25;;
20118;SDS011;10220;42.716;23.306;2023-05-16T14:14:04;13.98;;;4.53;;
20118;SDS011;10220;42.716;23.306;2023-05-16T14:16:30;11.38;;;5.18;;
20118;SDS011;10220;42.716;23.306;2023-05-16T14:18:55;13.38;;;6.68;;
20118;SDS011;10220;42.716;23.306;2023-05-16T14:21:21;10.52;;;5.88;;
20118;SDS011;10220;42.716;23.306;2023-05-16T14:23:46;14.02;;;5.30;;
20118;SDS011;10220;42.716;23.306;2023-05-16T14:26:12;10.13;;;6.00;;
20118;SDS011;10220;42.716;23.306;2023-05-16T14:28:38;7.78;;;5.47;;
20118;SDS011;10220;42.716;23.306;2023-05-16T14:31:04;10.65;;;6.35;;
20118;SDS011;10220;42.716;23.306;2023-05-16T14:33:29;9.80;;;5.63;;
20118;SDS011;10220;42.716;23.306;2023-05-16T14:35:56;8.90;;;5.70;;
20118;SDS011;10220;42.716;23.306;2023-05-16T14:38:22;8.27;;;6.22;;
20118;SDS011;10220;42.716;23.306;2023-05-16T14:40:47;12.93;;;6.60;;
20118;SDS011;10220;42.716;23.306;2023-05-16T14:43:13;10.15;;;6.75;;
20118;SDS011;10220;42.716;23.306;2023-05-16T14:45:38;12.00;;;7.13;;
20118;SDS011;10220;42.716;23.306;2023-05-16T14:48:04;14.43;;;7.70;;
20118;SDS011;10220;42.716;23.306;2023-05-16T14:50:30;13.65;;;7.18;;
20118;SDS011;10220;42.716;23.306;2023-05-16T14:52:56;11.20;;;7.93;;
20118;SDS011;10220;42.716;23.306;2023-05-16T14:55:21;14.88;;;7.45;;
20118;SDS011;10220;42.716;23.306;2023-05-16T14:57:47;10.55;;;6.82;;
20118;SDS011;10220;42.716;23.306;2023-05-16T15:00:14;11.95;;;7.07;;
20118;SDS011;10220;42.716;23.306;2023-05-16T15:02:41;14.35;;;6.93;;
20118;SDS011;10220;42.716;23.306;2023-05-16T15:05:06;11.23;;;7.65;;
20118;SDS011;10220;42.716;23.306;2023-05-16T15:07:32;13.10;;;7.55;;
20118;SDS011;10220;42.716;23.306;2023-05-16T15:09:57;12.27;;;7.38;;
20118;SDS011;10220;42.716;23.306;2023-05-16T15:12:23;10.60;;;7.50;;
20118;SDS011;10220;42.716;23.306;2023-05-16T15:14:48;16.20;;;7.85;;
20118;SDS011;10220;42.716;23.306;2023-05-16T15:17:14;10.65;;;7.22;;
20118;SDS011;10220;42.716;23.306;2023-05-16T15:19:39;9.93;;;7.05;;
20118;SDS011;10220;42.716;23.306;2023-05-16T15:22:04;11.30;;;6.38;;
20118;SDS011;10220;42.716;23.306;2023-05-16T15:24:32;7.90;;;5.93;;
20118;SDS011;10220;42.716;23.306;2023-05-16T15:26:57;14.30;;;6.82;;